sensor_id;sensor_type;location;lat;lon;timestamp;temperature;humidity
19403;DHT22;9837;48.888;8.998;2023-02-28T00:00:26;1.50;54.60
19403;DHT22;9837;48.888;8.998;2023-02-28T00:02:51;1.50;54.30
19403;DHT22;9837;48.888;8.998;2023-02-28T00:05:19;2.00;55.10
19403;DHT22;9837;48.888;8.998;2023-02-28T00:07:46;1.50;54.70
19403;DHT22;9837;48.888;8.998;2023-02-28T00:10:14;1.30;55.70
19403;DHT22;9837;48.888;8.998;2023-02-28T00:12:41;1.30;56.20
19403;DHT22;9837;48.888;8.998;2023-02-28T00:15:10;1.40;56.50
19403;DHT22;9837;48.888;8.998;2023-02-28T00:17:37;1.30;57.00
19403;DHT22;9837;48.888;8.998;2023-02-28T00:20:04;1.30;57.40
19403;DHT22;9837;48.888;8.998;2023-02-28T00:22:33;1.00;57.80
19403;DHT22;9837;48.888;8.998;2023-02-28T00:29:51;1.00;58.20
19403;DHT22;9837;48.888;8.998;2023-02-28T00:34:44;1.00;58.50
19403;DHT22;9837;48.888;8.998;2023-02-28T00:37:10;1.10;58.60
19403;DHT22;9837;48.888;8.998;2023-02-28T00:39:38;1.10;59.20
19403;DHT22;9837;48.888;8.998;2023-02-28T00:44:30;1.10;58.80
19403;DHT22;9837;48.888;8.998;2023-02-28T00:49:23;1.30;58.70
19403;DHT22;9837;48.888;8.998;2023-02-28T00:54:16;0.00;57.90
19403;DHT22;9837;48.888;8.998;2023-02-28T00:56:41;1.30;58.70
19403;DHT22;9837;48.888;8.998;2023-02-28T01:03:59;1.60;58.30
19403;DHT22;9837;48.888;8.998;2023-02-28T01:11:17;1.20;59.30
19403;DHT22;9837;48.888;8.998;2023-02-28T01:13:44;1.20;59.80
19403;DHT22;9837;48.888;8.998;2023-02-28T01:21:11;1.20;59.80
19403;DHT22;9837;48.888;8.998;2023-02-28T01:26:08;1.10;60.10
19403;DHT22;9837;48.888;8.998;2023-02-28T01:31:00;1.10;60.40
19403;DHT22;9837;48.888;8.998;2023-02-28T01:33:26;1.10;60.10
19403;DHT22;9837;48.888;8.998;2023-02-28T01:36:01;1.40;59.60
19403;DHT22;9837;48.888;8.998;2023-02-28T01:40:53;1.70;59.20
19403;DHT22;9837;48.888;8.998;2023-02-28T01:43:28;1.70;58.90
19403;DHT22;9837;48.888;8.998;2023-02-28T01:45:56;1.80;58.70
19403;DHT22;9837;48.888;8.998;2023-02-28T01:48:27;2.00;58.40
19403;DHT22;9837;48.888;8.998;2023-02-28T01:50:58;2.00;58.20
19403;DHT22;9837;48.888;8.998;2023-02-28T01:53:31;2.00;58.10
19403;DHT22;9837;48.888;8.998;2023-02-28T01:58:23;2.00;57.90
19403;DHT22;9837;48.888;8.998;2023-02-28T02:00:49;1.90;58.20
19403;DHT22;9837;48.888;8.998;2023-02-28T02:03:16;1.80;58.70
19403;DHT22;9837;48.888;8.998;2023-02-28T02:08:21;1.90;58.60
19403;DHT22;9837;48.888;8.998;2023-02-28T02:10:57;1.90;58.80
19403;DHT22;9837;48.888;8.998;2023-02-28T02:14:03;1.80;58.90
19403;DHT22;9837;48.888;8.998;2023-02-28T02:19:53;1.90;59.20
19403;DHT22;9837;48.888;8.998;2023-02-28T02:25:38;1.90;59.40
19403;DHT22;9837;48.888;8.998;2023-02-28T02:31:18;1.50;60.10
19403;DHT22;9837;48.888;8.998;2023-02-28T02:34:07;1.30;61.00
19403;DHT22;9837;48.888;8.998;2023-02-28T02:36:42;1.30;61.50
19403;DHT22;9837;48.888;8.998;2023-02-28T02:39:29;1.20;61.90
19403;DHT22;9837;48.888;8.998;2023-02-28T02:41:59;1.40;62.10
19403;DHT22;9837;48.888;8.998;2023-02-28T02:44:31;1.40;62.00
19403;DHT22;9837;48.888;8.998;2023-02-28T02:47:12;1.40;61.90
19403;DHT22;9837;48.888;8.998;2023-02-28T02:49:43;1.40;62.20
19403;DHT22;9837;48.888;8.998;2023-02-28T02:52:12;1.10;63.00
19403;DHT22;9837;48.888;8.998;2023-02-28T02:54:41;1.10;63.40
19403;DHT22;9837;48.888;8.998;2023-02-28T02:57:13;1.30;63.20
19403;DHT22;9837;48.888;8.998;2023-02-28T02:59:43;1.20;62.90
19403;DHT22;9837;48.888;8.998;2023-02-28T03:02:12;1.30;63.10
19403;DHT22;9837;48.888;8.998;2023-02-28T03:04:43;1.20;63.60
19403;DHT22;9837;48.888;8.998;2023-02-28T03:09:36;1.50;62.70
19403;DHT22;9837;48.888;8.998;2023-02-28T03:12:04;1.50;62.70
19403;DHT22;9837;48.888;8.998;2023-02-28T03:15:00;1.50;63.40
19403;DHT22;9837;48.888;8.998;2023-02-28T03:17:59;1.20;64.00
19403;DHT22;9837;48.888;8.998;2023-02-28T03:23:13;0.90;65.50
19403;DHT22;9837;48.888;8.998;2023-02-28T03:25:52;0.90;65.70
19403;DHT22;9837;48.888;8.998;2023-02-28T03:28:31;0.90;66.40
19403;DHT22;9837;48.888;8.998;2023-02-28T03:31:03;0.90;65.70
19403;DHT22;9837;48.888;8.998;2023-02-28T03:36:41;0.90;65.90
19403;DHT22;9837;48.888;8.998;2023-02-28T03:39:50;0.80;66.10
19403;DHT22;9837;48.888;8.998;2023-02-28T03:42:21;0.80;66.40
19403;DHT22;9837;48.888;8.998;2023-02-28T03:44:59;0.90;65.80
19403;DHT22;9837;48.888;8.998;2023-02-28T03:47:39;1.00;65.50
19403;DHT22;9837;48.888;8.998;2023-02-28T03:50:16;1.00;65.30
19403;DHT22;9837;48.888;8.998;2023-02-28T03:52:48;1.10;65.00
19403;DHT22;9837;48.888;8.998;2023-02-28T03:55:15;0.90;65.40
19403;DHT22;9837;48.888;8.998;2023-02-28T03:58:03;0.90;65.60
19403;DHT22;9837;48.888;8.998;2023-02-28T04:00:35;1.00;65.50
19403;DHT22;9837;48.888;8.998;2023-02-28T04:03:02;1.20;64.90
19403;DHT22;9837;48.888;8.998;2023-02-28T04:05:28;1.20;65.60
19403;DHT22;9837;48.888;8.998;2023-02-28T04:08:03;1.60;63.30
19403;DHT22;9837;48.888;8.998;2023-02-28T04:10:29;1.70;62.80
19403;DHT22;9837;48.888;8.998;2023-02-28T04:12:54;1.70;62.30
19403;DHT22;9837;48.888;8.998;2023-02-28T04:15:20;1.80;62.40
19403;DHT22;9837;48.888;8.998;2023-02-28T04:17:48;1.80;63.20
19403;DHT22;9837;48.888;8.998;2023-02-28T04:20:13;2.20;60.90
19403;DHT22;9837;48.888;8.998;2023-02-28T04:25:05;2.00;60.80
19403;DHT22;9837;48.888;8.998;2023-02-28T04:27:31;2.00;61.60
19403;DHT22;9837;48.888;8.998;2023-02-28T04:39:41;2.00;61.50
19403;DHT22;9837;48.888;8.998;2023-02-28T04:42:06;2.00;61.80
19403;DHT22;9837;48.888;8.998;2023-02-28T04:46:58;2.10;61.60
19403;DHT22;9837;48.888;8.998;2023-02-28T04:49:23;2.10;62.40
19403;DHT22;9837;48.888;8.998;2023-02-28T04:51:49;2.20;61.20
19403;DHT22;9837;48.888;8.998;2023-02-28T04:54:15;2.30;61.10
19403;DHT22;9837;48.888;8.998;2023-02-28T04:59:07;2.10;61.10
19403;DHT22;9837;48.888;8.998;2023-02-28T05:01:34;2.00;62.60
19403;DHT22;9837;48.888;8.998;2023-02-28T05:04:02;1.80;62.20
19403;DHT22;9837;48.888;8.998;2023-02-28T05:06:30;1.80;62.40
19403;DHT22;9837;48.888;8.998;2023-02-28T05:08:56;1.80;62.50
19403;DHT22;9837;48.888;8.998;2023-02-28T05:11:28;1.70;62.80
19403;DHT22;9837;48.888;8.998;2023-02-28T05:13:55;2.50;64.00
19403;DHT22;9837;48.888;8.998;2023-02-28T05:21:28;-0.60;62.80
19403;DHT22;9837;48.888;8.998;2023-02-28T05:23:56;1.70;65.00
19403;DHT22;9837;48.888;8.998;2023-02-28T05:26:21;1.90;64.30
19403;DHT22;9837;48.888;8.998;2023-02-28T05:33:39;1.90;63.30
19403;DHT22;9837;48.888;8.998;2023-02-28T05:36:05;1.70;63.00
19403;DHT22;9837;48.888;8.998;2023-02-28T05:38:31;1.60;63.50
19403;DHT22;9837;48.888;8.998;2023-02-28T05:40:57;1.50;64.20
19403;DHT22;9837;48.888;8.998;2023-02-28T05:45:48;1.50;63.50
19403;DHT22;9837;48.888;8.998;2023-02-28T05:48:14;1.70;64.40
19403;DHT22;9837;48.888;8.998;2023-02-28T05:53:07;1.50;63.40
19403;DHT22;9837;48.888;8.998;2023-02-28T05:55:33;5.50;66.70
19403;DHT22;9837;48.888;8.998;2023-02-28T05:58:01;1.40;64.10
19403;DHT22;9837;48.888;8.998;2023-02-28T06:02:53;1.60;63.20
19403;DHT22;9837;48.888;8.998;2023-02-28T06:05:21;1.70;63.70
19403;DHT22;9837;48.888;8.998;2023-02-28T06:10:13;1.20;63.90
19403;DHT22;9837;48.888;8.998;2023-02-28T06:12:39;1.30;64.90
19403;DHT22;9837;48.888;8.998;2023-02-28T06:15:07;1.60;63.50
19403;DHT22;9837;48.888;8.998;2023-02-28T06:17:33;1.60;64.10
19403;DHT22;9837;48.888;8.998;2023-02-28T06:19:58;1.70;62.80
19403;DHT22;9837;48.888;8.998;2023-02-28T06:22:24;1.60;62.40
19403;DHT22;9837;48.888;8.998;2023-02-28T06:24:49;1.60;63.20
19403;DHT22;9837;48.888;8.998;2023-02-28T06:27:15;2.20;64.00
19403;DHT22;9837;48.888;8.998;2023-02-28T06:32:06;1.80;62.20
19403;DHT22;9837;48.888;8.998;2023-02-28T06:36:59;1.60;63.20
19403;DHT22;9837;48.888;8.998;2023-02-28T06:39:29;2.00;64.10
19403;DHT22;9837;48.888;8.998;2023-02-28T06:41:54;1.80;63.20
19403;DHT22;9837;48.888;8.998;2023-02-28T06:44:20;1.70;63.20
19403;DHT22;9837;48.888;8.998;2023-02-28T06:46:46;1.80;63.00
19403;DHT22;9837;48.888;8.998;2023-02-28T06:49:12;1.70;63.40
19403;DHT22;9837;48.888;8.998;2023-02-28T06:51:41;1.70;63.30
19403;DHT22;9837;48.888;8.998;2023-02-28T06:54:10;1.70;63.30
19403;DHT22;9837;48.888;8.998;2023-02-28T06:59:02;1.70;62.10
19403;DHT22;9837;48.888;8.998;2023-02-28T07:01:29;1.80;62.60
19403;DHT22;9837;48.888;8.998;2023-02-28T07:06:21;1.70;62.30
19403;DHT22;9837;48.888;8.998;2023-02-28T07:08:51;1.70;63.50
19403;DHT22;9837;48.888;8.998;2023-02-28T07:11:18;1.90;62.00
19403;DHT22;9837;48.888;8.998;2023-02-28T07:13:44;2.00;62.00
19403;DHT22;9837;48.888;8.998;2023-02-28T07:18:37;2.00;61.60
19403;DHT22;9837;48.888;8.998;2023-02-28T07:21:05;1.80;61.80
19403;DHT22;9837;48.888;8.998;2023-02-28T07:23:31;1.70;62.70
19403;DHT22;9837;48.888;8.998;2023-02-28T07:28:23;1.80;62.40
19403;DHT22;9837;48.888;8.998;2023-02-28T07:35:41;2.00;61.90
19403;DHT22;9837;48.888;8.998;2023-02-28T07:38:07;2.20;61.90
19403;DHT22;9837;48.888;8.998;2023-02-28T07:40:35;2.10;62.00
19403;DHT22;9837;48.888;8.998;2023-02-28T07:43:02;2.00;62.00
19403;DHT22;9837;48.888;8.998;2023-02-28T07:45:29;1.80;62.10
19403;DHT22;9837;48.888;8.998;2023-02-28T07:47:55;1.70;63.90
19403;DHT22;9837;48.888;8.998;2023-02-28T07:50:21;1.70;63.40
19403;DHT22;9837;48.888;8.998;2023-02-28T07:52:47;1.70;62.90
19403;DHT22;9837;48.888;8.998;2023-02-28T07:55:12;1.70;63.20
19403;DHT22;9837;48.888;8.998;2023-02-28T07:57:40;1.80;62.90
19403;DHT22;9837;48.888;8.998;2023-02-28T08:00:09;1.80;62.60
19403;DHT22;9837;48.888;8.998;2023-02-28T08:02:36;1.80;62.40
19403;DHT22;9837;48.888;8.998;2023-02-28T08:05:02;1.80;62.40
19403;DHT22;9837;48.888;8.998;2023-02-28T08:09:53;1.60;62.40
19403;DHT22;9837;48.888;8.998;2023-02-28T08:14:45;1.60;63.00
19403;DHT22;9837;48.888;8.998;2023-02-28T08:17:11;1.70;64.00
19403;DHT22;9837;48.888;8.998;2023-02-28T08:19:36;2.00;63.00
19403;DHT22;9837;48.888;8.998;2023-02-28T08:22:02;1.80;62.50
19403;DHT22;9837;48.888;8.998;2023-02-28T08:24:28;1.60;62.70
19403;DHT22;9837;48.888;8.998;2023-02-28T08:26:54;1.60;63.40
19403;DHT22;9837;48.888;8.998;2023-02-28T08:31:45;1.60;63.30
19403;DHT22;9837;48.888;8.998;2023-02-28T08:34:12;1.90;64.20
19403;DHT22;9837;48.888;8.998;2023-02-28T08:36:39;1.70;63.70
19403;DHT22;9837;48.888;8.998;2023-02-28T08:39:05;2.00;63.10
19403;DHT22;9837;48.888;8.998;2023-02-28T08:41:31;2.00;62.30
19403;DHT22;9837;48.888;8.998;2023-02-28T08:43:57;1.90;62.50
19403;DHT22;9837;48.888;8.998;2023-02-28T08:48:52;1.90;62.00
19403;DHT22;9837;48.888;8.998;2023-02-28T08:51:18;1.90;62.80
19403;DHT22;9837;48.888;8.998;2023-02-28T08:53:47;2.00;62.80
19403;DHT22;9837;48.888;8.998;2023-02-28T08:56:15;2.10;61.50
19403;DHT22;9837;48.888;8.998;2023-02-28T08:58:42;2.40;61.00
19403;DHT22;9837;48.888;8.998;2023-02-28T09:01:09;2.40;61.50
19403;DHT22;9837;48.888;8.998;2023-02-28T09:03:35;2.30;61.30
19403;DHT22;9837;48.888;8.998;2023-02-28T09:08:29;2.40;60.50
19403;DHT22;9837;48.888;8.998;2023-02-28T09:10:55;5.40;62.80
19403;DHT22;9837;48.888;8.998;2023-02-28T09:13:24;2.70;61.00
19403;DHT22;9837;48.888;8.998;2023-02-28T09:18:16;2.70;59.40
19403;DHT22;9837;48.888;8.998;2023-02-28T09:20:42;2.80;59.80
19403;DHT22;9837;48.888;8.998;2023-02-28T09:23:09;2.60;59.80
19403;DHT22;9837;48.888;8.998;2023-02-28T09:25:35;2.60;60.00
19403;DHT22;9837;48.888;8.998;2023-02-28T09:28:01;2.60;60.40
19403;DHT22;9837;48.888;8.998;2023-02-28T09:30:27;2.90;60.00
19403;DHT22;9837;48.888;8.998;2023-02-28T09:32:53;2.90;58.30
19403;DHT22;9837;48.888;8.998;2023-02-28T09:37:47;2.90;58.90
19403;DHT22;9837;48.888;8.998;2023-02-28T09:40:14;3.00;58.40
19403;DHT22;9837;48.888;8.998;2023-02-28T09:42:43;3.40;59.00
19403;DHT22;9837;48.888;8.998;2023-02-28T09:45:24;2.80;58.90
19403;DHT22;9837;48.888;8.998;2023-02-28T09:47:52;3.30;57.90
19403;DHT22;9837;48.888;8.998;2023-02-28T09:50:39;3.60;58.60
19403;DHT22;9837;48.888;8.998;2023-02-28T09:53:27;3.30;57.90
19403;DHT22;9837;48.888;8.998;2023-02-28T09:55:59;3.30;57.40
19403;DHT22;9837;48.888;8.998;2023-02-28T09:58:34;3.20;57.90
19403;DHT22;9837;48.888;8.998;2023-02-28T10:01:09;3.40;57.80
19403;DHT22;9837;48.888;8.998;2023-02-28T10:03:44;3.50;57.20
19403;DHT22;9837;48.888;8.998;2023-02-28T10:06:20;3.70;56.70
19403;DHT22;9837;48.888;8.998;2023-02-28T10:09:01;3.60;56.00
19403;DHT22;9837;48.888;8.998;2023-02-28T10:11:27;3.60;56.20
19403;DHT22;9837;48.888;8.998;2023-02-28T10:13:56;3.50;56.70
19403;DHT22;9837;48.888;8.998;2023-02-28T10:16:39;3.40;56.90
19403;DHT22;9837;48.888;8.998;2023-02-28T10:22:26;3.50;57.00
19403;DHT22;9837;48.888;8.998;2023-02-28T10:24:55;3.60;56.20
19403;DHT22;9837;48.888;8.998;2023-02-28T10:27:30;3.70;56.80
19403;DHT22;9837;48.888;8.998;2023-02-28T10:29:58;3.90;56.30
19403;DHT22;9837;48.888;8.998;2023-02-28T10:32:35;4.10;56.30
19403;DHT22;9837;48.888;8.998;2023-02-28T10:37:27;4.30;54.90
19403;DHT22;9837;48.888;8.998;2023-02-28T10:39:53;4.40;54.60
19403;DHT22;9837;48.888;8.998;2023-02-28T10:42:26;4.40;54.60
19403;DHT22;9837;48.888;8.998;2023-02-28T10:45:11;4.40;55.20
19403;DHT22;9837;48.888;8.998;2023-02-28T10:47:51;4.60;54.80
19403;DHT22;9837;48.888;8.998;2023-02-28T10:50:33;4.70;53.80
19403;DHT22;9837;48.888;8.998;2023-02-28T10:53:30;4.80;54.40
19403;DHT22;9837;48.888;8.998;2023-02-28T10:56:16;4.70;54.00
19403;DHT22;9837;48.888;8.998;2023-02-28T10:58:57;4.70;54.30
19403;DHT22;9837;48.888;8.998;2023-02-28T11:06:42;4.90;52.90
19403;DHT22;9837;48.888;8.998;2023-02-28T11:09:28;4.70;53.20
19403;DHT22;9837;48.888;8.998;2023-02-28T11:11:55;4.90;54.10
19403;DHT22;9837;48.888;8.998;2023-02-28T11:14:27;4.90;54.70
19403;DHT22;9837;48.888;8.998;2023-02-28T11:16:54;5.30;53.70
19403;DHT22;9837;48.888;8.998;2023-02-28T11:19:44;5.50;52.60
19403;DHT22;9837;48.888;8.998;2023-02-28T11:22:11;5.70;52.70
19403;DHT22;9837;48.888;8.998;2023-02-28T11:24:44;5.50;52.00
19403;DHT22;9837;48.888;8.998;2023-02-28T11:29:55;6.00;51.80
19403;DHT22;9837;48.888;8.998;2023-02-28T11:32:25;5.70;51.80
19403;DHT22;9837;48.888;8.998;2023-02-28T11:37:30;6.80;49.10
19403;DHT22;9837;48.888;8.998;2023-02-28T11:39:56;6.80;49.70
19403;DHT22;9837;48.888;8.998;2023-02-28T11:45:07;6.80;48.80
19403;DHT22;9837;48.888;8.998;2023-02-28T11:47:48;6.60;49.00
19403;DHT22;9837;48.888;8.998;2023-02-28T11:53:00;6.60;50.30
19403;DHT22;9837;48.888;8.998;2023-02-28T11:55:32;7.00;49.00
19403;DHT22;9837;48.888;8.998;2023-02-28T12:22:35;7.00;47.90
19403;DHT22;9837;48.888;8.998;2023-02-28T12:27:39;7.00;48.50
19403;DHT22;9837;48.888;8.998;2023-02-28T12:30:27;7.10;47.50
19403;DHT22;9837;48.888;8.998;2023-02-28T12:33:08;7.00;47.60
19403;DHT22;9837;48.888;8.998;2023-02-28T12:35:44;6.90;47.30
19403;DHT22;9837;48.888;8.998;2023-02-28T12:38:17;6.70;47.90
19403;DHT22;9837;48.888;8.998;2023-02-28T12:43:20;6.90;48.90
19403;DHT22;9837;48.888;8.998;2023-02-28T12:46:00;7.20;48.20
19403;DHT22;9837;48.888;8.998;2023-02-28T12:48:43;7.50;47.20
19403;DHT22;9837;48.888;8.998;2023-02-28T12:51:10;7.80;46.60
19403;DHT22;9837;48.888;8.998;2023-02-28T12:56:47;7.60;46.30
19403;DHT22;9837;48.888;8.998;2023-02-28T13:05:06;7.00;48.20
19403;DHT22;9837;48.888;8.998;2023-02-28T13:07:49;7.30;46.90
19403;DHT22;9837;48.888;8.998;2023-02-28T13:12:51;6.90;47.70
19403;DHT22;9837;48.888;8.998;2023-02-28T13:15:27;7.00;47.80
19403;DHT22;9837;48.888;8.998;2023-02-28T13:17:56;7.40;47.00
19403;DHT22;9837;48.888;8.998;2023-02-28T13:20:29;7.40;46.30
19403;DHT22;9837;48.888;8.998;2023-02-28T13:27:59;7.00;46.80
19403;DHT22;9837;48.888;8.998;2023-02-28T13:33:29;6.90;48.50
19403;DHT22;9837;48.888;8.998;2023-02-28T13:36:23;7.30;47.50
19403;DHT22;9837;48.888;8.998;2023-02-28T13:38:59;7.30;48.00
19403;DHT22;9837;48.888;8.998;2023-02-28T13:46:28;7.80;46.00
19403;DHT22;9837;48.888;8.998;2023-02-28T13:48:53;8.00;45.60
19403;DHT22;9837;48.888;8.998;2023-02-28T13:51:42;7.90;46.30
19403;DHT22;9837;48.888;8.998;2023-02-28T13:54:18;8.00;45.90
19403;DHT22;9837;48.888;8.998;2023-02-28T13:57:14;8.10;45.60
19403;DHT22;9837;48.888;8.998;2023-02-28T14:05:04;8.10;45.90
19403;DHT22;9837;48.888;8.998;2023-02-28T14:07:41;8.10;46.40
19403;DHT22;9837;48.888;8.998;2023-02-28T14:10:21;8.40;46.00
19403;DHT22;9837;48.888;8.998;2023-02-28T14:18:31;12.20;46.90
19403;DHT22;9837;48.888;8.998;2023-02-28T14:21:10;8.30;44.30
19403;DHT22;9837;48.888;8.998;2023-02-28T14:26:55;8.10;46.50
19403;DHT22;9837;48.888;8.998;2023-02-28T14:32:32;8.60;45.20
19403;DHT22;9837;48.888;8.998;2023-02-28T14:35:03;8.50;44.80
19403;DHT22;9837;48.888;8.998;2023-02-28T14:37:33;8.30;45.00
19403;DHT22;9837;48.888;8.998;2023-02-28T14:42:33;8.00;45.90
19403;DHT22;9837;48.888;8.998;2023-02-28T14:45:00;8.40;46.50
19403;DHT22;9837;48.888;8.998;2023-02-28T14:47:30;8.00;46.70
19403;DHT22;9837;48.888;8.998;2023-02-28T14:52:25;8.20;46.70
19403;DHT22;9837;48.888;8.998;2023-02-28T14:55:00;8.30;46.10
19403;DHT22;9837;48.888;8.998;2023-02-28T14:57:32;8.40;46.00
19403;DHT22;9837;48.888;8.998;2023-02-28T15:00:17;8.40;45.60
19403;DHT22;9837;48.888;8.998;2023-02-28T15:07:44;8.20;46.30
19403;DHT22;9837;48.888;8.998;2023-02-28T15:10:22;8.00;47.10
19403;DHT22;9837;48.888;8.998;2023-02-28T15:12:55;7.70;47.50
19403;DHT22;9837;48.888;8.998;2023-02-28T15:17:56;8.20;47.50
19403;DHT22;9837;48.888;8.998;2023-02-28T15:20:24;8.30;46.70
19403;DHT22;9837;48.888;8.998;2023-02-28T15:22:52;8.40;47.00
19403;DHT22;9837;48.888;8.998;2023-02-28T15:25:22;8.40;46.00
19403;DHT22;9837;48.888;8.998;2023-02-28T15:27:53;8.40;46.60
19403;DHT22;9837;48.888;8.998;2023-02-28T15:30:28;8.40;46.10
19403;DHT22;9837;48.888;8.998;2023-02-28T15:35:39;8.50;46.80
19403;DHT22;9837;48.888;8.998;2023-02-28T15:38:23;8.80;46.20
19403;DHT22;9837;48.888;8.998;2023-02-28T15:40:54;8.50;46.50
19403;DHT22;9837;48.888;8.998;2023-02-28T15:43:28;8.00;47.00
19403;DHT22;9837;48.888;8.998;2023-02-28T15:46:00;7.50;47.90
19403;DHT22;9837;48.888;8.998;2023-02-28T15:48:42;7.50;48.50
19403;DHT22;9837;48.888;8.998;2023-02-28T15:51:16;7.70;47.90
19403;DHT22;9837;48.888;8.998;2023-02-28T15:53:54;7.60;48.40
19403;DHT22;9837;48.888;8.998;2023-02-28T15:56:47;7.70;48.40
19403;DHT22;9837;48.888;8.998;2023-02-28T15:59:20;7.50;48.00
19403;DHT22;9837;48.888;8.998;2023-02-28T16:01:46;11.40;50.50
19403;DHT22;9837;48.888;8.998;2023-02-28T16:04:17;7.70;48.00
19403;DHT22;9837;48.888;8.998;2023-02-28T16:06:44;7.70;48.50
19403;DHT22;9837;48.888;8.998;2023-02-28T16:09:12;8.00;47.50
19403;DHT22;9837;48.888;8.998;2023-02-28T16:11:47;8.40;48.30
19403;DHT22;9837;48.888;8.998;2023-02-28T16:14:17;8.10;47.30
19403;DHT22;9837;48.888;8.998;2023-02-28T16:16:46;8.20;46.90
19403;DHT22;9837;48.888;8.998;2023-02-28T16:19:12;8.20;47.50
19403;DHT22;9837;48.888;8.998;2023-02-28T16:21:37;8.20;47.50
19403;DHT22;9837;48.888;8.998;2023-02-28T16:24:03;8.20;47.40
19403;DHT22;9837;48.888;8.998;2023-02-28T16:26:28;8.10;47.50
19403;DHT22;9837;48.888;8.998;2023-02-28T16:28:54;7.80;48.20
19403;DHT22;9837;48.888;8.998;2023-02-28T16:31:20;7.50;48.90
19403;DHT22;9837;48.888;8.998;2023-02-28T16:33:46;7.20;49.70
19403;DHT22;9837;48.888;8.998;2023-02-28T16:36:21;7.20;49.80
19403;DHT22;9837;48.888;8.998;2023-02-28T16:38:48;7.20;50.30
19403;DHT22;9837;48.888;8.998;2023-02-28T16:41:20;7.10;49.60
19403;DHT22;9837;48.888;8.998;2023-02-28T16:43:47;7.10;50.20
19403;DHT22;9837;48.888;8.998;2023-02-28T16:46:14;7.20;49.20
19403;DHT22;9837;48.888;8.998;2023-02-28T16:48:40;7.20;49.70
19403;DHT22;9837;48.888;8.998;2023-02-28T16:51:10;7.00;49.70
19403;DHT22;9837;48.888;8.998;2023-02-28T16:53:36;6.80;50.10
19403;DHT22;9837;48.888;8.998;2023-02-28T16:56:02;6.60;50.40
19403;DHT22;9837;48.888;8.998;2023-02-28T16:58:28;6.60;50.90
19403;DHT22;9837;48.888;8.998;2023-02-28T17:00:54;6.90;50.90
19403;DHT22;9837;48.888;8.998;2023-02-28T17:03:27;7.10;50.20
19403;DHT22;9837;48.888;8.998;2023-02-28T17:05:53;7.30;49.50
19403;DHT22;9837;48.888;8.998;2023-02-28T17:08:19;7.10;49.40
19403;DHT22;9837;48.888;8.998;2023-02-28T17:13:11;6.70;49.50
19403;DHT22;9837;48.888;8.998;2023-02-28T17:15:37;6.60;50.60
19403;DHT22;9837;48.888;8.998;2023-02-28T17:18:04;6.60;50.60
19403;DHT22;9837;48.888;8.998;2023-02-28T17:20:30;6.70;50.60
19403;DHT22;9837;48.888;8.998;2023-02-28T17:22:56;6.70;50.40
19403;DHT22;9837;48.888;8.998;2023-02-28T17:25:22;6.40;50.40
19403;DHT22;9837;48.888;8.998;2023-02-28T17:27:48;6.40;50.70
19403;DHT22;9837;48.888;8.998;2023-02-28T17:30:25;6.40;50.50
19403;DHT22;9837;48.888;8.998;2023-02-28T17:32:56;6.40;50.40
19403;DHT22;9837;48.888;8.998;2023-02-28T17:35:23;6.20;50.70
19403;DHT22;9837;48.888;8.998;2023-02-28T17:37:49;6.40;50.60
19403;DHT22;9837;48.888;8.998;2023-02-28T17:40:17;6.30;51.00
19403;DHT22;9837;48.888;8.998;2023-02-28T17:42:43;6.20;50.90
19403;DHT22;9837;48.888;8.998;2023-02-28T17:45:10;6.00;51.00
19403;DHT22;9837;48.888;8.998;2023-02-28T17:47:36;6.00;51.50
19403;DHT22;9837;48.888;8.998;2023-02-28T17:50:02;6.20;51.30
19403;DHT22;9837;48.888;8.998;2023-02-28T17:54:54;6.20;50.30
19403;DHT22;9837;48.888;8.998;2023-02-28T17:57:20;6.20;51.00
19403;DHT22;9837;48.888;8.998;2023-02-28T17:59:46;6.10;51.10
19403;DHT22;9837;48.888;8.998;2023-02-28T18:02:13;6.20;51.10
19403;DHT22;9837;48.888;8.998;2023-02-28T18:04:38;6.10;51.20
19403;DHT22;9837;48.888;8.998;2023-02-28T18:07:06;6.50;51.30
19403;DHT22;9837;48.888;8.998;2023-02-28T18:09:32;5.90;50.80
19403;DHT22;9837;48.888;8.998;2023-02-28T18:14:25;6.10;50.80
19403;DHT22;9837;48.888;8.998;2023-02-28T18:16:52;6.00;51.30
19403;DHT22;9837;48.888;8.998;2023-02-28T18:19:18;6.10;51.30
19403;DHT22;9837;48.888;8.998;2023-02-28T18:21:45;6.00;50.90
19403;DHT22;9837;48.888;8.998;2023-02-28T18:24:11;6.00;51.40
19403;DHT22;9837;48.888;8.998;2023-02-28T18:26:37;6.20;51.20
19403;DHT22;9837;48.888;8.998;2023-02-28T18:29:03;6.40;50.20
19403;DHT22;9837;48.888;8.998;2023-02-28T18:31:29;6.30;50.00
19403;DHT22;9837;48.888;8.998;2023-02-28T18:33:57;6.30;50.50
19403;DHT22;9837;48.888;8.998;2023-02-28T18:36:23;6.30;50.60
19403;DHT22;9837;48.888;8.998;2023-02-28T18:38:49;6.40;49.80
19403;DHT22;9837;48.888;8.998;2023-02-28T18:41:15;6.40;50.30
19403;DHT22;9837;48.888;8.998;2023-02-28T18:43:42;6.50;50.20
19403;DHT22;9837;48.888;8.998;2023-02-28T18:46:10;6.40;50.10
19403;DHT22;9837;48.888;8.998;2023-02-28T18:48:36;10.30;52.50
19403;DHT22;9837;48.888;8.998;2023-02-28T18:51:14;10.20;52.60
19403;DHT22;9837;48.888;8.998;2023-02-28T18:53:40;6.00;51.00
19403;DHT22;9837;48.888;8.998;2023-02-28T18:56:09;5.90;51.60
19403;DHT22;9837;48.888;8.998;2023-02-28T18:58:35;5.80;52.10
19403;DHT22;9837;48.888;8.998;2023-02-28T19:01:03;5.70;52.10
19403;DHT22;9837;48.888;8.998;2023-02-28T19:03:29;5.70;52.70
19403;DHT22;9837;48.888;8.998;2023-02-28T19:05:56;5.80;52.50
19403;DHT22;9837;48.888;8.998;2023-02-28T19:08:23;5.60;52.40
19403;DHT22;9837;48.888;8.998;2023-02-28T19:10:49;5.50;52.50
19403;DHT22;9837;48.888;8.998;2023-02-28T19:13:15;5.50;52.50
19403;DHT22;9837;48.888;8.998;2023-02-28T19:15:41;5.50;52.80
19403;DHT22;9837;48.888;8.998;2023-02-28T19:20:33;5.60;52.70
19403;DHT22;9837;48.888;8.998;2023-02-28T19:22:58;5.50;52.70
19403;DHT22;9837;48.888;8.998;2023-02-28T19:25:24;5.40;53.00
19403;DHT22;9837;48.888;8.998;2023-02-28T19:27:53;5.50;53.80
19403;DHT22;9837;48.888;8.998;2023-02-28T19:30:20;5.60;52.80
19403;DHT22;9837;48.888;8.998;2023-02-28T19:32:46;5.70;52.40
19403;DHT22;9837;48.888;8.998;2023-02-28T19:35:12;5.70;53.00
19403;DHT22;9837;48.888;8.998;2023-02-28T19:37:39;5.80;52.00
19403;DHT22;9837;48.888;8.998;2023-02-28T19:40:09;6.00;52.00
19403;DHT22;9837;48.888;8.998;2023-02-28T19:42:35;5.80;52.00
19403;DHT22;9837;48.888;8.998;2023-02-28T19:45:02;5.90;52.50
19403;DHT22;9837;48.888;8.998;2023-02-28T19:47:28;5.80;52.80
19403;DHT22;9837;48.888;8.998;2023-02-28T19:49:56;5.80;52.80
19403;DHT22;9837;48.888;8.998;2023-02-28T19:52:23;5.60;52.40
19403;DHT22;9837;48.888;8.998;2023-02-28T19:54:49;5.60;52.90
19403;DHT22;9837;48.888;8.998;2023-02-28T19:57:16;5.70;52.70
19403;DHT22;9837;48.888;8.998;2023-02-28T19:59:43;5.70;52.80
19403;DHT22;9837;48.888;8.998;2023-02-28T20:02:14;6.10;53.40
19403;DHT22;9837;48.888;8.998;2023-02-28T20:04:40;5.70;53.20
19403;DHT22;9837;48.888;8.998;2023-02-28T20:07:06;5.60;53.40
19403;DHT22;9837;48.888;8.998;2023-02-28T20:09:32;5.70;53.20
19403;DHT22;9837;48.888;8.998;2023-02-28T20:11:58;5.60;52.80
19403;DHT22;9837;48.888;8.998;2023-02-28T20:14:24;5.50;53.10
19403;DHT22;9837;48.888;8.998;2023-02-28T20:16:50;5.50;53.60
19403;DHT22;9837;48.888;8.998;2023-02-28T20:19:15;5.60;53.40
19403;DHT22;9837;48.888;8.998;2023-02-28T20:21:43;5.80;52.30
19403;DHT22;9837;48.888;8.998;2023-02-28T20:24:10;5.80;52.80
19403;DHT22;9837;48.888;8.998;2023-02-28T20:26:36;5.90;52.00
19403;DHT22;9837;48.888;8.998;2023-02-28T20:29:03;5.80;52.10